VSV5213 LTAI-UAAA
Flight info
| Callsign | VSV5213 |
|---|---|
| Flight time | 4h 31m |
| Altitude | 35000 |
| Route | TEWHE DCT KETEK UR55 MUT/N0442F340 UA285 SELVI/N0442F350 UA285 SIV UA4 ERZ UT309 KAR UT165 REBLO M11 MATAL T916 LEYLA N161 GASBI/K0817F350 N161 DIVNO/K0819F370 M610 TOMGO Z370 EKLAT |
| Aircraft | B752/M-SDE2E3FGHIJ3J4J7RWXY/LB1 |
Departure
| Time | 2026-04-25 15:30 |
|---|---|
| Airport | Antalya International Airport (LTAI) |
Arrival
| Time | 2026-04-25 20:01 |
|---|---|
| Airport | Almaty International Airport (UAAA) |
| Time | Latitude | Longitude | Altitude | Speed | Heading |
|---|---|---|---|---|---|
| 2026-04-25 14:48 | 36.89354 | 30.79747 | 187 ft | 0 kts | 7° |
| 2026-04-25 15:11 | 36.89350 | 30.79747 | 187 ft | 2 kts | 7° |
| 2026-04-25 15:11 | 36.89336 | 30.79744 | 187 ft | 2 kts | 7° |
| 2026-04-25 15:11 | 36.89321 | 30.79742 | 187 ft | 2 kts | 7° |
| 2026-04-25 15:12 | 36.89292 | 30.79732 | 187 ft | 2 kts | 47° |
| 2026-04-25 15:12 | 36.89285 | 30.79716 | 187 ft | 2 kts | 78° |
| 2026-04-25 15:12 | 36.89285 | 30.79705 | 187 ft | 1 kts | 97° |
| 2026-04-25 15:12 | 36.89285 | 30.79699 | 187 ft | 0 kts | 96° |
| 2026-04-25 15:21 | 36.89285 | 30.79703 | 187 ft | 0 kts | 96° |
| 2026-04-25 15:21 | 36.89284 | 30.79711 | 187 ft | 2 kts | 96° |
| 2026-04-25 15:21 | 36.89282 | 30.79741 | 187 ft | 4 kts | 96° |
| 2026-04-25 15:21 | 36.89279 | 30.79782 | 187 ft | 5 kts | 96° |
| 2026-04-25 15:22 | 36.89275 | 30.79828 | 187 ft | 5 kts | 97° |
| 2026-04-25 15:22 | 36.89270 | 30.79876 | 187 ft | 5 kts | 97° |
| 2026-04-25 15:22 | 36.89265 | 30.79926 | 187 ft | 5 kts | 96° |
| 2026-04-25 15:22 | 36.89261 | 30.79976 | 187 ft | 5 kts | 95° |
| 2026-04-25 15:23 | 36.89257 | 30.80026 | 187 ft | 5 kts | 95° |
| 2026-04-25 15:23 | 36.89253 | 30.80077 | 187 ft | 6 kts | 96° |
| 2026-04-25 15:23 | 36.89246 | 30.80156 | 187 ft | 11 kts | 96° |
| 2026-04-25 15:23 | 36.89234 | 30.80279 | 187 ft | 16 kts | 96° |
| 2026-04-25 15:24 | 36.89220 | 30.80444 | 187 ft | 20 kts | 96° |
| 2026-04-25 15:24 | 36.89208 | 30.80576 | 187 ft | 9 kts | 97° |
| 2026-04-25 15:24 | 36.89181 | 30.80630 | 187 ft | 6 kts | 164° |
| 2026-04-25 15:24 | 36.89148 | 30.80630 | 187 ft | 8 kts | 186° |
| 2026-04-25 15:25 | 36.89053 | 30.80616 | 187 ft | 12 kts | 186° |
| 2026-04-25 15:25 | 36.88955 | 30.80603 | 187 ft | 15 kts | 186° |
| 2026-04-25 15:25 | 36.88838 | 30.80588 | 186 ft | 18 kts | 186° |
| 2026-04-25 15:25 | 36.88715 | 30.80570 | 186 ft | 16 kts | 186° |
| 2026-04-25 15:26 | 36.88605 | 30.80555 | 186 ft | 14 kts | 186° |
| 2026-04-25 15:26 | 36.88509 | 30.80542 | 186 ft | 13 kts | 186° |
| 2026-04-25 15:26 | 36.88423 | 30.80530 | 186 ft | 11 kts | 186° |
| 2026-04-25 15:26 | 36.88349 | 30.80520 | 186 ft | 10 kts | 186° |
| 2026-04-25 15:27 | 36.88284 | 30.80512 | 186 ft | 8 kts | 186° |
| 2026-04-25 15:27 | 36.88219 | 30.80502 | 186 ft | 9 kts | 186° |
| 2026-04-25 15:27 | 36.88122 | 30.80549 | 186 ft | 6 kts | 111° |
| 2026-04-25 15:28 | 36.88114 | 30.80604 | 186 ft | 6 kts | 96° |
| 2026-04-25 15:28 | 36.88109 | 30.80667 | 186 ft | 8 kts | 96° |
| 2026-04-25 15:28 | 36.88112 | 30.80724 | 186 ft | 3 kts | 37° |
| 2026-04-25 15:28 | 36.88124 | 30.80727 | 186 ft | 0 kts | 6° |
| 2026-04-25 15:29 | 36.88150 | 30.80732 | 186 ft | 16 kts | 7° |
| 2026-04-25 15:29 | 36.88465 | 30.80776 | 187 ft | 75 kts | 6° |
| 2026-04-25 15:29 | 36.89185 | 30.80875 | 188 ft | 130 kts | 6° |
| 2026-04-25 15:29 | 36.90231 | 30.81019 | 264 ft | 169 kts | 6° |
| 2026-04-25 15:30 | 36.91457 | 30.81193 | 667 ft | 180 kts | 6° |
| 2026-04-25 15:30 | 36.92646 | 30.81519 | 1481 ft | 172 kts | 23° |
| 2026-04-25 15:30 | 36.93732 | 30.82151 | 1786 ft | 181 kts | 26° |
| 2026-04-25 15:30 | 36.94910 | 30.82877 | 2026 ft | 195 kts | 28° |
| 2026-04-25 15:31 | 36.96141 | 30.83677 | 2328 ft | 208 kts | 27° |
| 2026-04-25 15:31 | 36.97471 | 30.84577 | 2620 ft | 222 kts | 39° |
| 2026-04-25 15:31 | 36.98360 | 30.86113 | 3104 ft | 224 kts | 74° |
| 2026-04-25 15:31 | 36.98446 | 30.88032 | 3650 ft | 224 kts | 96° |
| 2026-04-25 15:32 | 36.98292 | 30.89970 | 4141 ft | 231 kts | 95° |
| 2026-04-25 15:32 | 36.98141 | 30.92051 | 4433 ft | 250 kts | 96° |
| 2026-04-25 15:32 | 36.97967 | 30.94296 | 4784 ft | 267 kts | 96° |
| 2026-04-25 15:33 | 36.97593 | 30.98968 | 6110 ft | 275 kts | 96° |
| 2026-04-25 15:33 | 36.97396 | 31.01348 | 6822 ft | 277 kts | 97° |
| 2026-04-25 15:33 | 36.97195 | 31.03752 | 7419 ft | 283 kts | 97° |
| 2026-04-25 15:33 | 36.96991 | 31.06195 | 7957 ft | 291 kts | 97° |
| 2026-04-25 15:34 | 36.96776 | 31.08761 | 8005 ft | 296 kts | 95° |
| 2026-04-25 15:34 | 36.96731 | 31.11287 | 8369 ft | 295 kts | 91° |
| 2026-04-25 15:34 | 36.96733 | 31.13856 | 9122 ft | 295 kts | 91° |
| 2026-04-25 15:34 | 36.96731 | 31.15554 | 9568 ft | 298 kts | 91° |
| 2026-04-25 15:35 | 36.96733 | 31.21733 | 10620 ft | 322 kts | 91° |
| 2026-04-25 15:35 | 36.96734 | 31.24582 | 10851 ft | 340 kts | 91° |
| 2026-04-25 15:35 | 36.96736 | 31.27629 | 11211 ft | 354 kts | 91° |
| 2026-04-25 15:36 | 36.96749 | 31.33846 | 12026 ft | 367 kts | 90° |
| 2026-04-25 15:36 | 36.96760 | 31.36988 | 12044 ft | 358 kts | 90° |
| 2026-04-25 15:36 | 36.96768 | 31.40044 | 12058 ft | 353 kts | 90° |
| 2026-04-25 15:37 | 36.96768 | 31.43169 | 12223 ft | 363 kts | 90° |
| 2026-04-25 15:37 | 36.96768 | 31.46261 | 13130 ft | 358 kts | 90° |
| 2026-04-25 15:37 | 36.96773 | 31.49366 | 13716 ft | 364 kts | 90° |
| 2026-04-25 15:37 | 36.96795 | 31.52557 | 14312 ft | 367 kts | 90° |
| 2026-04-25 15:38 | 36.96814 | 31.55745 | 14829 ft | 372 kts | 90° |
| 2026-04-25 15:38 | 36.96831 | 31.58973 | 15370 ft | 376 kts | 90° |
| 2026-04-25 15:38 | 36.96848 | 31.62225 | 15858 ft | 379 kts | 90° |
| 2026-04-25 15:38 | 36.96844 | 31.65539 | 16347 ft | 383 kts | 91° |
| 2026-04-25 15:39 | 36.96832 | 31.68904 | 16857 ft | 386 kts | 91° |
| 2026-04-25 15:39 | 36.96820 | 31.72236 | 17369 ft | 388 kts | 92° |
| 2026-04-25 15:39 | 36.96796 | 31.75634 | 17836 ft | 392 kts | 92° |
| 2026-04-25 15:39 | 36.96772 | 31.79022 | 18357 ft | 394 kts | 92° |
| 2026-04-25 15:40 | 36.96746 | 31.82464 | 18897 ft | 396 kts | 92° |
| 2026-04-25 15:40 | 36.96692 | 31.84747 | 19247 ft | 397 kts | 97° |
| 2026-04-25 15:40 | 36.95758 | 31.89157 | 19843 ft | 396 kts | 118° |
| 2026-04-25 15:40 | 36.94305 | 31.92006 | 20355 ft | 393 kts | 133° |
| 2026-04-25 15:41 | 36.92485 | 31.94568 | 20795 ft | 395 kts | 129° |
| 2026-04-25 15:41 | 36.91112 | 31.97548 | 21237 ft | 402 kts | 114° |
| 2026-04-25 15:41 | 36.90320 | 32.00918 | 21702 ft | 406 kts | 102° |
| 2026-04-25 15:41 | 36.89989 | 32.04411 | 22127 ft | 410 kts | 96° |
| 2026-04-25 15:42 | 36.89798 | 32.07971 | 22581 ft | 412 kts | 95° |
| 2026-04-25 15:42 | 36.89646 | 32.11516 | 23066 ft | 412 kts | 95° |
| 2026-04-25 15:42 | 36.89520 | 32.15069 | 23498 ft | 414 kts | 95° |
| 2026-04-25 15:42 | 36.89407 | 32.18693 | 23894 ft | 417 kts | 94° |
| 2026-04-25 15:43 | 36.89302 | 32.22329 | 24279 ft | 420 kts | 94° |
| 2026-04-25 15:43 | 36.89202 | 32.25971 | 24660 ft | 423 kts | 94° |
| 2026-04-25 15:43 | 36.89103 | 32.29649 | 25016 ft | 426 kts | 94° |
| 2026-04-25 15:43 | 36.89005 | 32.33318 | 25378 ft | 428 kts | 94° |
| 2026-04-25 15:44 | 36.88905 | 32.37048 | 25775 ft | 430 kts | 94° |
| 2026-04-25 15:44 | 36.88804 | 32.40777 | 26120 ft | 432 kts | 94° |
| 2026-04-25 15:44 | 36.88703 | 32.44494 | 26456 ft | 435 kts | 94° |
| 2026-04-25 15:44 | 36.88598 | 32.48285 | 26795 ft | 437 kts | 94° |
| 2026-04-25 15:45 | 36.88495 | 32.52081 | 27164 ft | 439 kts | 94° |
| 2026-04-25 15:45 | 36.88391 | 32.55848 | 27470 ft | 442 kts | 94° |
| 2026-04-25 15:45 | 36.88284 | 32.59688 | 27797 ft | 444 kts | 94° |
| 2026-04-25 15:45 | 36.88211 | 32.62287 | 28022 ft | 445 kts | 94° |
| 2026-04-25 15:46 | 36.88064 | 32.67460 | 28459 ft | 448 kts | 95° |
| 2026-04-25 15:46 | 36.87952 | 32.71351 | 28751 ft | 450 kts | 95° |
| 2026-04-25 15:46 | 36.87839 | 32.75258 | 29046 ft | 453 kts | 95° |
| 2026-04-25 15:46 | 36.87723 | 32.79168 | 29328 ft | 455 kts | 95° |
| 2026-04-25 15:47 | 36.87606 | 32.83139 | 29640 ft | 457 kts | 95° |
| 2026-04-25 15:47 | 36.87487 | 32.87061 | 29920 ft | 459 kts | 95° |
| 2026-04-25 15:47 | 36.87365 | 32.91080 | 30239 ft | 460 kts | 95° |
| 2026-04-25 15:47 | 36.87243 | 32.95033 | 30487 ft | 463 kts | 95° |
| 2026-04-25 15:48 | 36.87117 | 32.99082 | 30709 ft | 465 kts | 95° |
| 2026-04-25 15:48 | 36.86991 | 33.03077 | 30947 ft | 468 kts | 95° |
| 2026-04-25 15:48 | 36.86861 | 33.07165 | 31206 ft | 469 kts | 95° |
| 2026-04-25 15:48 | 36.86731 | 33.11204 | 31388 ft | 472 kts | 95° |
| 2026-04-25 15:49 | 36.86598 | 33.15311 | 31647 ft | 473 kts | 95° |
| 2026-04-25 15:49 | 36.86531 | 33.19387 | 31830 ft | 477 kts | 89° |
| 2026-04-25 15:49 | 36.86915 | 33.23523 | 32019 ft | 482 kts | 80° |
| 2026-04-25 15:49 | 36.87835 | 33.27560 | 32331 ft | 483 kts | 70° |
| 2026-04-25 15:50 | 36.89237 | 33.31333 | 32601 ft | 485 kts | 61° |
| 2026-04-25 15:50 | 36.91096 | 33.34798 | 32854 ft | 486 kts | 52° |
| 2026-04-25 15:50 | 36.93387 | 33.37893 | 33135 ft | 485 kts | 43° |
| 2026-04-25 15:50 | 36.95893 | 33.40741 | 33412 ft | 484 kts | 43° |
| 2026-04-25 15:51 | 36.98351 | 33.43551 | 33673 ft | 483 kts | 43° |
| 2026-04-25 15:51 | 37.00014 | 33.45457 | 33839 ft | 483 kts | 43° |
| 2026-04-25 15:51 | 37.03310 | 33.49239 | 34184 ft | 481 kts | 43° |
| 2026-04-25 15:51 | 37.05761 | 33.52057 | 34324 ft | 483 kts | 43° |
| 2026-04-25 15:52 | 37.08241 | 33.54911 | 34522 ft | 482 kts | 43° |
| 2026-04-25 15:52 | 37.10691 | 33.57733 | 34687 ft | 482 kts | 43° |
| 2026-04-25 15:52 | 37.13168 | 33.60589 | 34858 ft | 482 kts | 43° |
| 2026-04-25 15:52 | 37.15606 | 33.63403 | 34972 ft | 482 kts | 42° |
| 2026-04-25 15:53 | 37.18063 | 33.66241 | 35094 ft | 478 kts | 43° |
| 2026-04-25 15:53 | 37.20515 | 33.69077 | 35111 ft | 477 kts | 43° |
| 2026-04-25 15:53 | 37.25393 | 33.74726 | 35116 ft | 480 kts | 43° |
| 2026-04-25 15:54 | 37.30294 | 33.80412 | 35114 ft | 479 kts | 43° |
| 2026-04-25 15:54 | 37.35175 | 33.86085 | 35112 ft | 480 kts | 43° |
| 2026-04-25 15:55 | 37.40062 | 33.91775 | 35110 ft | 480 kts | 43° |
| 2026-04-25 15:55 | 37.44943 | 33.97471 | 35105 ft | 481 kts | 43° |
| 2026-04-25 15:56 | 37.49823 | 34.03188 | 35101 ft | 480 kts | 43° |
| 2026-04-25 15:56 | 37.54703 | 34.08913 | 35106 ft | 480 kts | 43° |
| 2026-04-25 15:57 | 37.59600 | 34.14670 | 35101 ft | 480 kts | 43° |
| 2026-04-25 15:57 | 37.64461 | 34.20396 | 35098 ft | 480 kts | 43° |
| 2026-04-25 15:58 | 37.69320 | 34.26130 | 35098 ft | 481 kts | 43° |
| 2026-04-25 15:58 | 37.74191 | 34.31889 | 35099 ft | 480 kts | 43° |
| 2026-04-25 15:59 | 37.79085 | 34.37687 | 35100 ft | 481 kts | 43° |
| 2026-04-25 15:59 | 37.83934 | 34.43441 | 35102 ft | 481 kts | 43° |
| 2026-04-25 16:00 | 37.87997 | 34.48272 | 35108 ft | 480 kts | 43° |
| 2026-04-25 16:00 | 37.93633 | 34.54973 | 35111 ft | 478 kts | 43° |
| 2026-04-25 16:01 | 37.98472 | 34.60732 | 35107 ft | 477 kts | 43° |
| 2026-04-25 16:01 | 38.03294 | 34.66483 | 35109 ft | 476 kts | 43° |
| 2026-04-25 16:02 | 38.07971 | 34.72070 | 35115 ft | 475 kts | 43° |
| 2026-04-25 16:02 | 38.12754 | 34.77796 | 35109 ft | 474 kts | 43° |
| 2026-04-25 16:03 | 38.17540 | 34.83530 | 35107 ft | 473 kts | 42° |
| 2026-04-25 16:03 | 38.22422 | 34.89135 | 35113 ft | 471 kts | 43° |
| 2026-04-25 16:04 | 38.27206 | 34.94801 | 35116 ft | 470 kts | 43° |
| 2026-04-25 16:04 | 38.31947 | 35.00456 | 35123 ft | 469 kts | 43° |
| 2026-04-25 16:05 | 38.36685 | 35.06146 | 35116 ft | 468 kts | 44° |
| 2026-04-25 16:06 | 38.43972 | 35.14343 | 35112 ft | 466 kts | 40° |
| 2026-04-25 16:06 | 38.48926 | 35.19707 | 35114 ft | 465 kts | 39° |
| 2026-04-25 16:07 | 38.53753 | 35.25140 | 35103 ft | 465 kts | 45° |
| 2026-04-25 16:07 | 38.58326 | 35.30994 | 35097 ft | 464 kts | 43° |
| 2026-04-25 16:08 | 38.62921 | 35.36698 | 35097 ft | 464 kts | 44° |
| 2026-04-25 16:08 | 38.67482 | 35.42518 | 35095 ft | 463 kts | 44° |
| 2026-04-25 16:09 | 38.72019 | 35.48323 | 35089 ft | 463 kts | 44° |
| 2026-04-25 16:09 | 38.76587 | 35.54168 | 35081 ft | 462 kts | 44° |
| 2026-04-25 16:10 | 38.81124 | 35.59967 | 35094 ft | 462 kts | 44° |
| 2026-04-25 16:10 | 38.85627 | 35.65790 | 35099 ft | 462 kts | 45° |
| 2026-04-25 16:11 | 38.90155 | 35.71638 | 35097 ft | 461 kts | 45° |
| 2026-04-25 16:11 | 38.94660 | 35.77440 | 35099 ft | 461 kts | 44° |
| 2026-04-25 16:12 | 38.99269 | 35.83156 | 35095 ft | 461 kts | 43° |
| 2026-04-25 16:12 | 39.03864 | 35.88870 | 35102 ft | 460 kts | 43° |
| 2026-04-25 16:13 | 39.08438 | 35.94651 | 35099 ft | 461 kts | 44° |
| 2026-04-25 16:13 | 39.13003 | 36.00376 | 35101 ft | 460 kts | 43° |
| 2026-04-25 16:14 | 39.17521 | 36.06207 | 35096 ft | 460 kts | 46° |
| 2026-04-25 16:14 | 39.21890 | 36.12167 | 35100 ft | 459 kts | 45° |
| 2026-04-25 16:15 | 39.26279 | 36.18102 | 35110 ft | 459 kts | 45° |
| 2026-04-25 16:15 | 39.30685 | 36.24052 | 35113 ft | 459 kts | 45° |
| 2026-04-25 16:16 | 39.35072 | 36.29983 | 35119 ft | 459 kts | 45° |
| 2026-04-25 16:16 | 39.39488 | 36.35962 | 35125 ft | 458 kts | 45° |
| 2026-04-25 16:17 | 39.43885 | 36.41927 | 35124 ft | 458 kts | 45° |
| 2026-04-25 16:17 | 39.48261 | 36.47876 | 35138 ft | 458 kts | 45° |
| 2026-04-25 16:18 | 39.52666 | 36.53805 | 35139 ft | 458 kts | 44° |
| 2026-04-25 16:18 | 39.57070 | 36.59725 | 35139 ft | 459 kts | 45° |
| 2026-04-25 16:19 | 39.61523 | 36.65658 | 35140 ft | 459 kts | 45° |
| 2026-04-25 16:19 | 39.65938 | 36.71652 | 35131 ft | 460 kts | 45° |
| 2026-04-25 16:20 | 39.72516 | 36.80674 | 35129 ft | 460 kts | 45° |
| 2026-04-25 16:20 | 39.76574 | 36.87024 | 35136 ft | 461 kts | 59° |
| 2026-04-25 16:21 | 39.78028 | 36.90740 | 35135 ft | 460 kts | 69° |
| 2026-04-25 16:21 | 39.79472 | 36.98774 | 35139 ft | 458 kts | 84° |
| 2026-04-25 16:22 | 39.80217 | 37.06946 | 35133 ft | 459 kts | 85° |
| 2026-04-25 16:22 | 39.80911 | 37.15160 | 35138 ft | 458 kts | 85° |
| 2026-04-25 16:23 | 39.81582 | 37.23390 | 35149 ft | 459 kts | 85° |
| 2026-04-25 16:23 | 39.82240 | 37.31610 | 35147 ft | 459 kts | 85° |
| 2026-04-25 16:24 | 39.82892 | 37.39852 | 35155 ft | 459 kts | 85° |
| 2026-04-25 16:24 | 39.83524 | 37.48083 | 35162 ft | 460 kts | 85° |
| 2026-04-25 16:25 | 39.84165 | 37.56370 | 35157 ft | 461 kts | 85° |
| 2026-04-25 16:25 | 39.84794 | 37.64653 | 35159 ft | 461 kts | 85° |
| 2026-04-25 16:26 | 39.85376 | 37.72907 | 35156 ft | 461 kts | 86° |
| 2026-04-25 16:26 | 39.85973 | 37.81204 | 35165 ft | 462 kts | 86° |
| 2026-04-25 16:27 | 39.86581 | 37.89465 | 35165 ft | 462 kts | 86° |
| 2026-04-25 16:27 | 39.87188 | 37.97795 | 35160 ft | 462 kts | 86° |
| 2026-04-25 16:28 | 39.87792 | 38.06089 | 35149 ft | 463 kts | 86° |
| 2026-04-25 16:28 | 39.88392 | 38.14384 | 35164 ft | 463 kts | 86° |
| 2026-04-25 16:29 | 39.88991 | 38.22745 | 35162 ft | 463 kts | 86° |
| 2026-04-25 16:29 | 39.89582 | 38.31056 | 35164 ft | 463 kts | 86° |
| 2026-04-25 16:30 | 39.90167 | 38.39372 | 35167 ft | 464 kts | 86° |
| 2026-04-25 16:30 | 39.90747 | 38.47691 | 35174 ft | 464 kts | 86° |
| 2026-04-25 16:31 | 39.91322 | 38.56035 | 35179 ft | 464 kts | 86° |
| 2026-04-25 16:31 | 39.91894 | 38.64421 | 35195 ft | 465 kts | 86° |
| 2026-04-25 16:32 | 39.92456 | 38.72755 | 35186 ft | 465 kts | 87° |
| 2026-04-25 16:32 | 39.93016 | 38.81136 | 35184 ft | 465 kts | 86° |
| 2026-04-25 16:33 | 39.93556 | 38.89487 | 35184 ft | 464 kts | 89° |
| 2026-04-25 16:33 | 39.93700 | 38.97862 | 35187 ft | 465 kts | 91° |
| 2026-04-25 16:34 | 39.93847 | 39.06296 | 35185 ft | 471 kts | 90° |
| 2026-04-25 16:34 | 39.93983 | 39.14886 | 35178 ft | 478 kts | 91° |
| 2026-04-25 16:35 | 39.94098 | 39.23571 | 35176 ft | 484 kts | 91° |
| 2026-04-25 16:35 | 39.94227 | 39.32339 | 35176 ft | 490 kts | 90° |
| 2026-04-25 16:36 | 39.94405 | 39.41245 | 35182 ft | 495 kts | 90° |
| 2026-04-25 16:36 | 39.94571 | 39.50230 | 35186 ft | 501 kts | 90° |
| 2026-04-25 16:37 | 39.94701 | 39.59307 | 35183 ft | 506 kts | 90° |
| 2026-04-25 16:37 | 39.94821 | 39.68514 | 35181 ft | 511 kts | 91° |
| 2026-04-25 16:38 | 39.94910 | 39.77698 | 35177 ft | 512 kts | 91° |
| 2026-04-25 16:38 | 39.94984 | 39.86998 | 35176 ft | 512 kts | 91° |
| 2026-04-25 16:39 | 39.95066 | 39.96228 | 35178 ft | 514 kts | 91° |
| 2026-04-25 16:39 | 39.95144 | 40.05539 | 35179 ft | 514 kts | 91° |
| 2026-04-25 16:40 | 39.95211 | 40.14788 | 35177 ft | 514 kts | 92° |
| 2026-04-25 16:40 | 39.95241 | 40.24083 | 35176 ft | 516 kts | 91° |
| 2026-04-25 16:41 | 39.95289 | 40.33345 | 35176 ft | 514 kts | 91° |
| 2026-04-25 16:41 | 39.95358 | 40.47303 | 35180 ft | 516 kts | 91° |
| 2026-04-25 16:42 | 39.95398 | 40.56657 | 35180 ft | 516 kts | 91° |
| 2026-04-25 16:42 | 39.95432 | 40.65999 | 35180 ft | 517 kts | 92° |
| 2026-04-25 16:43 | 39.95460 | 40.75302 | 35172 ft | 517 kts | 92° |
| 2026-04-25 16:43 | 39.95481 | 40.84663 | 35173 ft | 518 kts | 92° |
| 2026-04-25 16:44 | 39.95495 | 40.93991 | 35182 ft | 518 kts | 92° |
| 2026-04-25 16:44 | 39.95499 | 41.03357 | 35190 ft | 519 kts | 92° |
| 2026-04-25 16:45 | 39.95497 | 41.12747 | 35202 ft | 520 kts | 92° |
| 2026-04-25 16:45 | 39.96259 | 41.22100 | 35211 ft | 525 kts | 76° |
| 2026-04-25 16:46 | 39.98807 | 41.30997 | 35199 ft | 526 kts | 67° |
| 2026-04-25 16:46 | 40.01170 | 41.38300 | 35190 ft | 525 kts | 66° |
| 2026-04-25 16:47 | 40.04480 | 41.48469 | 35188 ft | 526 kts | 66° |
| 2026-04-25 16:47 | 40.07331 | 41.57231 | 35191 ft | 527 kts | 66° |
| 2026-04-25 16:48 | 40.10175 | 41.65991 | 35191 ft | 526 kts | 67° |
| 2026-04-25 16:48 | 40.13011 | 41.74783 | 35178 ft | 526 kts | 67° |
| 2026-04-25 16:49 | 40.15826 | 41.83584 | 35183 ft | 527 kts | 67° |
| 2026-04-25 16:49 | 40.18636 | 41.92392 | 35187 ft | 526 kts | 67° |
| 2026-04-25 16:50 | 40.21441 | 42.01214 | 35193 ft | 527 kts | 67° |
| 2026-04-25 16:50 | 40.24218 | 42.09977 | 35187 ft | 526 kts | 67° |
| 2026-04-25 16:51 | 40.27020 | 42.18847 | 35194 ft | 527 kts | 67° |
| 2026-04-25 16:51 | 40.29330 | 42.26183 | 35198 ft | 526 kts | 67° |
| 2026-04-25 16:52 | 40.32567 | 42.36490 | 35198 ft | 526 kts | 67° |
| 2026-04-25 16:52 | 40.35333 | 42.45334 | 35206 ft | 524 kts | 67° |
| 2026-04-25 16:53 | 40.39453 | 42.58591 | 35224 ft | 526 kts | 67° |
| 2026-04-25 16:54 | 40.42194 | 42.67462 | 35209 ft | 525 kts | 68° |
| 2026-04-25 16:54 | 40.44911 | 42.76291 | 35210 ft | 525 kts | 68° |
| 2026-04-25 16:55 | 40.47643 | 42.85166 | 35214 ft | 525 kts | 68° |
| 2026-04-25 16:55 | 40.50363 | 42.94011 | 35224 ft | 526 kts | 68° |
| 2026-04-25 16:56 | 40.53100 | 43.02939 | 35225 ft | 525 kts | 68° |
| 2026-04-25 16:56 | 40.56044 | 43.11657 | 35235 ft | 523 kts | 58° |
| 2026-04-25 16:57 | 40.59921 | 43.19707 | 35221 ft | 524 kts | 56° |
| 2026-04-25 16:57 | 40.63828 | 43.27732 | 35222 ft | 522 kts | 56° |
| 2026-04-25 16:58 | 40.67738 | 43.35753 | 35231 ft | 521 kts | 56° |
| 2026-04-25 16:58 | 40.71620 | 43.43720 | 35229 ft | 521 kts | 56° |
| 2026-04-25 16:59 | 40.75573 | 43.51715 | 35236 ft | 520 kts | 55° |
| 2026-04-25 16:59 | 40.79494 | 43.59724 | 35232 ft | 521 kts | 56° |
| 2026-04-25 17:00 | 40.82439 | 43.68354 | 35227 ft | 521 kts | 75° |
| 2026-04-25 17:00 | 40.83385 | 43.77826 | 35224 ft | 521 kts | 92° |
| 2026-04-25 17:01 | 40.83239 | 43.87275 | 35198 ft | 519 kts | 94° |
| 2026-04-25 17:01 | 40.82953 | 43.96734 | 35200 ft | 518 kts | 94° |
| 2026-04-25 17:02 | 40.82668 | 44.06251 | 35197 ft | 518 kts | 94° |
| 2026-04-25 17:02 | 40.82354 | 44.15727 | 35183 ft | 518 kts | 94° |
| 2026-04-25 17:03 | 40.82020 | 44.25200 | 35199 ft | 519 kts | 94° |
| 2026-04-25 17:03 | 40.81673 | 44.34686 | 35203 ft | 519 kts | 94° |
| 2026-04-25 17:04 | 40.81320 | 44.44132 | 35207 ft | 520 kts | 94° |
| 2026-04-25 17:04 | 40.80957 | 44.53600 | 35204 ft | 519 kts | 94° |
| 2026-04-25 17:05 | 40.80584 | 44.63129 | 35202 ft | 521 kts | 94° |
| 2026-04-25 17:05 | 40.79991 | 44.77402 | 35198 ft | 520 kts | 95° |
| 2026-04-25 17:06 | 40.79578 | 44.86859 | 35204 ft | 522 kts | 95° |
| 2026-04-25 17:06 | 40.79169 | 44.96427 | 35205 ft | 523 kts | 95° |
| 2026-04-25 17:07 | 40.78759 | 45.05927 | 35206 ft | 523 kts | 95° |
| 2026-04-25 17:07 | 40.78338 | 45.15509 | 35220 ft | 523 kts | 95° |
| 2026-04-25 17:08 | 40.77913 | 45.25070 | 35207 ft | 523 kts | 95° |
| 2026-04-25 17:08 | 40.77481 | 45.34573 | 35210 ft | 524 kts | 95° |
| 2026-04-25 17:09 | 40.77039 | 45.44158 | 35209 ft | 524 kts | 95° |
| 2026-04-25 17:09 | 40.77101 | 45.53745 | 35192 ft | 528 kts | 83° |
| 2026-04-25 17:10 | 40.78090 | 45.63292 | 35194 ft | 528 kts | 82° |
| 2026-04-25 17:10 | 40.79038 | 45.72861 | 35197 ft | 528 kts | 83° |
| 2026-04-25 17:11 | 40.79987 | 45.82387 | 35184 ft | 527 kts | 83° |
| 2026-04-25 17:11 | 40.80946 | 45.91928 | 35189 ft | 526 kts | 83° |
| 2026-04-25 17:12 | 40.81903 | 46.01473 | 35187 ft | 528 kts | 83° |
| 2026-04-25 17:12 | 40.82859 | 46.11055 | 35172 ft | 527 kts | 83° |
| 2026-04-25 17:13 | 40.83712 | 46.19047 | 35175 ft | 528 kts | 82° |
| 2026-04-25 17:13 | 40.84835 | 46.30214 | 35160 ft | 529 kts | 84° |
| 2026-04-25 17:14 | 40.85710 | 46.39789 | 35159 ft | 530 kts | 84° |
| 2026-04-25 17:14 | 40.86621 | 46.49432 | 35157 ft | 531 kts | 83° |
| 2026-04-25 17:15 | 40.87582 | 46.59078 | 35163 ft | 531 kts | 83° |
| 2026-04-25 17:15 | 40.88536 | 46.68740 | 35158 ft | 532 kts | 83° |
| 2026-04-25 17:16 | 40.89479 | 46.78417 | 35156 ft | 533 kts | 84° |
| 2026-04-25 17:16 | 40.90926 | 46.87939 | 35154 ft | 533 kts | 76° |
| 2026-04-25 17:17 | 40.92688 | 46.97469 | 35158 ft | 535 kts | 76° |
| 2026-04-25 17:17 | 40.94408 | 47.06957 | 35148 ft | 535 kts | 76° |
| 2026-04-25 17:18 | 40.96122 | 47.16493 | 35161 ft | 535 kts | 76° |
| 2026-04-25 17:18 | 40.97854 | 47.26004 | 35189 ft | 532 kts | 76° |
| 2026-04-25 17:19 | 40.99579 | 47.35518 | 35212 ft | 534 kts | 76° |
| 2026-04-25 17:19 | 41.01315 | 47.45077 | 35192 ft | 533 kts | 76° |
| 2026-04-25 17:20 | 41.03066 | 47.54542 | 35226 ft | 532 kts | 76° |
| 2026-04-25 17:20 | 41.04802 | 47.64060 | 35209 ft | 533 kts | 76° |
| 2026-04-25 17:21 | 41.06512 | 47.73582 | 35209 ft | 532 kts | 77° |
| 2026-04-25 17:21 | 41.08192 | 47.83048 | 35226 ft | 532 kts | 77° |
| 2026-04-25 17:22 | 41.09549 | 47.90981 | 35222 ft | 531 kts | 76° |
| 2026-04-25 17:22 | 41.11062 | 47.97144 | 35237 ft | 530 kts | 65° |
| 2026-04-25 17:22 | 41.12774 | 48.01500 | 35261 ft | 528 kts | 55° |
| 2026-04-25 17:23 | 41.16976 | 48.09377 | 35245 ft | 524 kts | 51° |
| 2026-04-25 17:23 | 41.21247 | 48.17184 | 35261 ft | 527 kts | 51° |
| 2026-04-25 17:24 | 41.25494 | 48.25087 | 35264 ft | 527 kts | 51° |
| 2026-04-25 17:24 | 41.29783 | 48.32981 | 35217 ft | 526 kts | 51° |
| 2026-04-25 17:25 | 41.34057 | 48.40826 | 35223 ft | 527 kts | 51° |
| 2026-04-25 17:25 | 41.38351 | 48.48714 | 35244 ft | 526 kts | 51° |
| 2026-04-25 17:26 | 41.42636 | 48.56580 | 35259 ft | 526 kts | 50° |
| 2026-04-25 17:26 | 41.46983 | 48.64348 | 35262 ft | 523 kts | 50° |
| 2026-04-25 17:27 | 41.51355 | 48.72182 | 35265 ft | 525 kts | 51° |
| 2026-04-25 17:27 | 41.54814 | 48.78783 | 35275 ft | 525 kts | 54° |
| 2026-04-25 17:28 | 41.59567 | 48.88238 | 35291 ft | 526 kts | 54° |
| 2026-04-25 17:28 | 41.63615 | 48.96295 | 35285 ft | 524 kts | 54° |
| 2026-04-25 17:29 | 41.67651 | 49.04348 | 35289 ft | 523 kts | 54° |
| 2026-04-25 17:29 | 41.71706 | 49.12459 | 35287 ft | 523 kts | 54° |
| 2026-04-25 17:30 | 41.75720 | 49.20508 | 35292 ft | 524 kts | 54° |
| 2026-04-25 17:30 | 41.79761 | 49.28634 | 35299 ft | 524 kts | 54° |
| 2026-04-25 17:31 | 41.83934 | 49.36497 | 35299 ft | 521 kts | 51° |
| 2026-04-25 17:31 | 41.88212 | 49.44317 | 35286 ft | 521 kts | 51° |
| 2026-04-25 17:32 | 41.92484 | 49.52156 | 35287 ft | 521 kts | 51° |
| 2026-04-25 17:32 | 41.96753 | 49.60012 | 35286 ft | 521 kts | 51° |
| 2026-04-25 17:33 | 42.01005 | 49.67860 | 35279 ft | 520 kts | 52° |
| 2026-04-25 17:33 | 42.05222 | 49.75665 | 35273 ft | 519 kts | 52° |
| 2026-04-25 17:34 | 42.09452 | 49.83511 | 35273 ft | 520 kts | 51° |
| 2026-04-25 17:34 | 42.13703 | 49.91419 | 35278 ft | 521 kts | 52° |
| 2026-04-25 17:35 | 42.17936 | 49.99313 | 35265 ft | 522 kts | 52° |
| 2026-04-25 17:35 | 42.22170 | 50.07229 | 35268 ft | 522 kts | 52° |
| 2026-04-25 17:36 | 42.26383 | 50.15131 | 35261 ft | 522 kts | 51° |
| 2026-04-25 17:36 | 42.30628 | 50.23109 | 35272 ft | 523 kts | 52° |
| 2026-04-25 17:37 | 42.34846 | 50.31034 | 35272 ft | 521 kts | 51° |
| 2026-04-25 17:37 | 42.39043 | 50.38981 | 35266 ft | 523 kts | 51° |
| 2026-04-25 17:38 | 42.42575 | 50.45676 | 35261 ft | 524 kts | 51° |
| 2026-04-25 17:38 | 42.47702 | 50.54762 | 35271 ft | 523 kts | 49° |
| 2026-04-25 17:39 | 42.52171 | 50.62578 | 35268 ft | 525 kts | 48° |
| 2026-04-25 17:39 | 42.56617 | 50.70374 | 35258 ft | 525 kts | 49° |
| 2026-04-25 17:40 | 42.61068 | 50.78200 | 35256 ft | 525 kts | 49° |
| 2026-04-25 17:40 | 42.65498 | 50.86010 | 35253 ft | 526 kts | 49° |
| 2026-04-25 17:41 | 42.69952 | 50.93884 | 35260 ft | 526 kts | 49° |
| 2026-04-25 17:41 | 42.74388 | 51.01746 | 35259 ft | 527 kts | 49° |
| 2026-04-25 17:42 | 42.78844 | 51.09663 | 35252 ft | 526 kts | 49° |
| 2026-04-25 17:42 | 42.83257 | 51.17525 | 35249 ft | 526 kts | 49° |
| 2026-04-25 17:43 | 42.87561 | 51.25601 | 35248 ft | 526 kts | 49° |
| 2026-04-25 17:43 | 42.91899 | 51.33596 | 35232 ft | 526 kts | 49° |
| 2026-04-25 17:44 | 42.96276 | 51.41537 | 35247 ft | 528 kts | 49° |
| 2026-04-25 17:44 | 43.00682 | 51.49502 | 35254 ft | 527 kts | 49° |
| 2026-04-25 17:45 | 43.04358 | 51.56149 | 35248 ft | 526 kts | 48° |
| 2026-04-25 17:45 | 43.09134 | 51.65807 | 35247 ft | 534 kts | 61° |
| 2026-04-25 17:46 | 43.11470 | 51.75470 | 35245 ft | 540 kts | 80° |
| 2026-04-25 17:46 | 43.11929 | 51.85636 | 35235 ft | 539 kts | 85° |
| 2026-04-25 17:47 | 43.12903 | 51.95786 | 35290 ft | 540 kts | 81° |
| 2026-04-25 17:47 | 43.13965 | 52.05954 | 35245 ft | 540 kts | 82° |
| 2026-04-25 17:48 | 43.15524 | 52.21206 | 35222 ft | 541 kts | 81° |
| 2026-04-25 17:49 | 43.16546 | 52.31331 | 35227 ft | 543 kts | 81° |
| 2026-04-25 17:49 | 43.17573 | 52.41585 | 35243 ft | 544 kts | 81° |
| 2026-04-25 17:50 | 43.18583 | 52.51757 | 35226 ft | 544 kts | 81° |
| 2026-04-25 17:50 | 43.19592 | 52.62042 | 35213 ft | 545 kts | 82° |
| 2026-04-25 17:51 | 43.20595 | 52.72333 | 35206 ft | 546 kts | 83° |
| 2026-04-25 17:51 | 43.21579 | 52.82561 | 35204 ft | 547 kts | 82° |
| 2026-04-25 17:52 | 43.22568 | 52.92929 | 35202 ft | 549 kts | 82° |
| 2026-04-25 17:52 | 43.23545 | 53.03254 | 35202 ft | 548 kts | 82° |
| 2026-04-25 17:53 | 43.24515 | 53.13636 | 35195 ft | 549 kts | 82° |
| 2026-04-25 17:53 | 43.25470 | 53.23949 | 35198 ft | 552 kts | 83° |
| 2026-04-25 17:54 | 43.26422 | 53.34338 | 35193 ft | 551 kts | 82° |
| 2026-04-25 17:54 | 43.27373 | 53.44814 | 35190 ft | 553 kts | 83° |
| 2026-04-25 17:55 | 43.28308 | 53.55212 | 35190 ft | 554 kts | 83° |
| 2026-04-25 17:55 | 43.29238 | 53.65685 | 35186 ft | 556 kts | 83° |
| 2026-04-25 17:56 | 43.30161 | 53.76179 | 35174 ft | 556 kts | 83° |
| 2026-04-25 17:56 | 43.31074 | 53.86694 | 35161 ft | 556 kts | 83° |
| 2026-04-25 17:57 | 43.31985 | 53.97259 | 35175 ft | 559 kts | 83° |
| 2026-04-25 17:57 | 43.32878 | 54.07756 | 35179 ft | 559 kts | 84° |
| 2026-04-25 17:58 | 43.33770 | 54.18366 | 35179 ft | 560 kts | 83° |
| 2026-04-25 17:58 | 43.34648 | 54.28916 | 35182 ft | 559 kts | 84° |
| 2026-04-25 17:59 | 43.35518 | 54.39492 | 35185 ft | 561 kts | 83° |
| 2026-04-25 17:59 | 43.36384 | 54.50156 | 35166 ft | 560 kts | 83° |
| 2026-04-25 18:00 | 43.37235 | 54.60716 | 35178 ft | 562 kts | 84° |
| 2026-04-25 18:00 | 43.38083 | 54.71389 | 35142 ft | 562 kts | 85° |
| 2026-04-25 18:01 | 43.38916 | 54.82020 | 35159 ft | 562 kts | 84° |
| 2026-04-25 18:01 | 43.39745 | 54.92712 | 35148 ft | 564 kts | 85° |
| 2026-04-25 18:02 | 43.40560 | 55.03368 | 35142 ft | 566 kts | 85° |
| 2026-04-25 18:02 | 43.41371 | 55.14101 | 35161 ft | 565 kts | 85° |
| 2026-04-25 18:03 | 43.42168 | 55.24772 | 35158 ft | 565 kts | 85° |
| 2026-04-25 18:03 | 43.42962 | 55.35527 | 35141 ft | 566 kts | 85° |
| 2026-04-25 18:04 | 43.43740 | 55.46240 | 35175 ft | 565 kts | 85° |
| 2026-04-25 18:04 | 43.44510 | 55.56966 | 35183 ft | 566 kts | 85° |
| 2026-04-25 18:05 | 43.45145 | 55.65914 | 35168 ft | 568 kts | 87° |
| 2026-04-25 18:05 | 43.46024 | 55.78481 | 35140 ft | 567 kts | 86° |
| 2026-04-25 18:06 | 43.46765 | 55.89228 | 35132 ft | 566 kts | 86° |
| 2026-04-25 18:06 | 43.47499 | 56.00048 | 35161 ft | 567 kts | 86° |
| 2026-04-25 18:07 | 43.48218 | 56.10785 | 35132 ft | 567 kts | 86° |
| 2026-04-25 18:07 | 43.48927 | 56.21484 | 35129 ft | 565 kts | 87° |
| 2026-04-25 18:08 | 43.49623 | 56.32206 | 35125 ft | 567 kts | 87° |
| 2026-04-25 18:08 | 43.50317 | 56.43019 | 35130 ft | 565 kts | 86° |
| 2026-04-25 18:09 | 43.50995 | 56.53728 | 35130 ft | 565 kts | 88° |
| 2026-04-25 18:09 | 43.51664 | 56.64491 | 35123 ft | 566 kts | 86° |
| 2026-04-25 18:10 | 43.52215 | 56.73430 | 35118 ft | 565 kts | 88° |
| 2026-04-25 18:10 | 43.52970 | 56.85946 | 35105 ft | 563 kts | 88° |
| 2026-04-25 18:11 | 43.53604 | 56.96627 | 35108 ft | 564 kts | 88° |
| 2026-04-25 18:11 | 43.54233 | 57.07393 | 35137 ft | 564 kts | 88° |
| 2026-04-25 18:12 | 43.54852 | 57.18145 | 35113 ft | 561 kts | 88° |
| 2026-04-25 18:12 | 43.55455 | 57.28806 | 35104 ft | 564 kts | 88° |
| 2026-04-25 18:13 | 43.56053 | 57.39525 | 35108 ft | 561 kts | 89° |
| 2026-04-25 18:13 | 43.56638 | 57.50267 | 35102 ft | 563 kts | 88° |
| 2026-04-25 18:14 | 43.57497 | 57.66281 | 35089 ft | 558 kts | 90° |
| 2026-04-25 18:14 | 43.58054 | 57.76950 | 35075 ft | 560 kts | 90° |
| 2026-04-25 18:15 | 43.58599 | 57.87588 | 35088 ft | 561 kts | 90° |
| 2026-04-25 18:15 | 43.59137 | 57.98258 | 35081 ft | 560 kts | 90° |
| 2026-04-25 18:16 | 43.59669 | 58.08949 | 35072 ft | 557 kts | 90° |
| 2026-04-25 18:17 | 43.60438 | 58.24898 | 35553 ft | 553 kts | 90° |
| 2026-04-25 18:17 | 43.60686 | 58.30130 | 35780 ft | 553 kts | 90° |
| 2026-04-25 18:17 | 43.60932 | 58.35377 | 35963 ft | 552 kts | 91° |
| 2026-04-25 18:17 | 43.61178 | 58.40658 | 36208 ft | 550 kts | 91° |
| 2026-04-25 18:18 | 43.61420 | 58.45921 | 36464 ft | 549 kts | 91° |
| 2026-04-25 18:18 | 43.61657 | 58.51109 | 36723 ft | 547 kts | 91° |
| 2026-04-25 18:18 | 43.61891 | 58.56328 | 36916 ft | 546 kts | 91° |
| 2026-04-25 18:19 | 43.62353 | 58.66769 | 37044 ft | 548 kts | 92° |
| 2026-04-25 18:19 | 43.62805 | 58.77113 | 37031 ft | 541 kts | 92° |
| 2026-04-25 18:20 | 43.63245 | 58.87474 | 37030 ft | 540 kts | 92° |
| 2026-04-25 18:20 | 43.63673 | 58.97764 | 37026 ft | 541 kts | 92° |
| 2026-04-25 18:21 | 43.64097 | 59.08166 | 37013 ft | 543 kts | 92° |
| 2026-04-25 18:21 | 43.64510 | 59.18527 | 37008 ft | 545 kts | 92° |
| 2026-04-25 18:22 | 43.64912 | 59.28897 | 37014 ft | 546 kts | 92° |
| 2026-04-25 18:22 | 43.65310 | 59.39352 | 37003 ft | 548 kts | 92° |
| 2026-04-25 18:23 | 43.65700 | 59.49860 | 37007 ft | 549 kts | 92° |
| 2026-04-25 18:23 | 43.66077 | 59.60310 | 36988 ft | 549 kts | 92° |
| 2026-04-25 18:24 | 43.66448 | 59.70763 | 36972 ft | 548 kts | 93° |
| 2026-04-25 18:24 | 43.66806 | 59.81226 | 36975 ft | 546 kts | 92° |
| 2026-04-25 18:25 | 43.67156 | 59.91661 | 36974 ft | 547 kts | 93° |
| 2026-04-25 18:25 | 43.67497 | 60.02161 | 36961 ft | 548 kts | 93° |
| 2026-04-25 18:26 | 43.67826 | 60.12596 | 36965 ft | 546 kts | 93° |
| 2026-04-25 18:26 | 43.68146 | 60.23006 | 36967 ft | 545 kts | 92° |
| 2026-04-25 18:27 | 43.68456 | 60.33429 | 36966 ft | 545 kts | 92° |
| 2026-04-25 18:27 | 43.68756 | 60.43870 | 36965 ft | 546 kts | 93° |
| 2026-04-25 18:28 | 43.69049 | 60.54347 | 36968 ft | 546 kts | 92° |
| 2026-04-25 18:28 | 43.69331 | 60.64777 | 36968 ft | 547 kts | 92° |
| 2026-04-25 18:29 | 43.69736 | 60.80402 | 36954 ft | 544 kts | 93° |
| 2026-04-25 18:30 | 43.70243 | 61.01258 | 36952 ft | 545 kts | 93° |
| 2026-04-25 18:30 | 43.70481 | 61.11643 | 36951 ft | 545 kts | 93° |
| 2026-04-25 18:31 | 43.70711 | 61.22092 | 36947 ft | 543 kts | 93° |
| 2026-04-25 18:31 | 43.70929 | 61.32451 | 36947 ft | 544 kts | 92° |
| 2026-04-25 18:32 | 43.71140 | 61.42909 | 36941 ft | 544 kts | 93° |
| 2026-04-25 18:32 | 43.71341 | 61.53288 | 36948 ft | 543 kts | 93° |
| 2026-04-25 18:33 | 43.71532 | 61.63718 | 36935 ft | 543 kts | 93° |
| 2026-04-25 18:33 | 43.71713 | 61.74052 | 36925 ft | 542 kts | 93° |
| 2026-04-25 18:34 | 43.71885 | 61.84417 | 36922 ft | 540 kts | 94° |
| 2026-04-25 18:34 | 43.72046 | 61.94746 | 36918 ft | 540 kts | 93° |
| 2026-04-25 18:35 | 43.72199 | 62.05138 | 36927 ft | 541 kts | 94° |
| 2026-04-25 18:35 | 43.72343 | 62.15477 | 36937 ft | 541 kts | 94° |
| 2026-04-25 18:36 | 43.72476 | 62.25857 | 36919 ft | 541 kts | 93° |
| 2026-04-25 18:36 | 43.72601 | 62.36187 | 36925 ft | 541 kts | 93° |
| 2026-04-25 18:37 | 43.72716 | 62.46506 | 36925 ft | 540 kts | 93° |
| 2026-04-25 18:37 | 43.72821 | 62.56868 | 36921 ft | 541 kts | 93° |
| 2026-04-25 18:38 | 43.72918 | 62.67253 | 36907 ft | 540 kts | 94° |
| 2026-04-25 18:38 | 43.73005 | 62.77492 | 36897 ft | 537 kts | 94° |
| 2026-04-25 18:39 | 43.73083 | 62.87817 | 36900 ft | 537 kts | 93° |
| 2026-04-25 18:39 | 43.73150 | 62.98047 | 36902 ft | 537 kts | 94° |
| 2026-04-25 18:40 | 43.73211 | 63.08340 | 37232 ft | 530 kts | 94° |
| 2026-04-25 18:40 | 43.73239 | 63.13359 | 37180 ft | 516 kts | 94° |
| 2026-04-25 18:40 | 43.73261 | 63.18211 | 36889 ft | 502 kts | 94° |
| 2026-04-25 18:41 | 43.73297 | 63.27745 | 36904 ft | 497 kts | 94° |
| 2026-04-25 18:41 | 43.73313 | 63.32458 | 37110 ft | 494 kts | 94° |
| 2026-04-25 18:41 | 43.73325 | 63.37228 | 36869 ft | 502 kts | 94° |
| 2026-04-25 18:42 | 43.73343 | 63.45231 | 36896 ft | 504 kts | 93° |
| 2026-04-25 18:42 | 43.73361 | 63.56552 | 36899 ft | 509 kts | 94° |
| 2026-04-25 18:43 | 43.73368 | 63.66370 | 36902 ft | 513 kts | 94° |
| 2026-04-25 18:43 | 43.73367 | 63.76221 | 36895 ft | 513 kts | 94° |
| 2026-04-25 18:44 | 43.73356 | 63.86015 | 36893 ft | 513 kts | 94° |
| 2026-04-25 18:44 | 43.73337 | 63.95858 | 36897 ft | 514 kts | 94° |
| 2026-04-25 18:45 | 43.73309 | 64.05681 | 36895 ft | 515 kts | 94° |
| 2026-04-25 18:45 | 43.73273 | 64.15538 | 36895 ft | 513 kts | 94° |
| 2026-04-25 18:46 | 43.73230 | 64.25336 | 36895 ft | 514 kts | 94° |
| 2026-04-25 18:46 | 43.73176 | 64.35215 | 36896 ft | 514 kts | 94° |
| 2026-04-25 18:47 | 43.73116 | 64.45026 | 36896 ft | 513 kts | 94° |
| 2026-04-25 18:47 | 43.73045 | 64.54871 | 36903 ft | 511 kts | 93° |
| 2026-04-25 18:48 | 43.72968 | 64.64649 | 36898 ft | 513 kts | 94° |
| 2026-04-25 18:48 | 43.72883 | 64.74451 | 36891 ft | 510 kts | 94° |
| 2026-04-25 18:49 | 43.72788 | 64.84176 | 36892 ft | 511 kts | 94° |
| 2026-04-25 18:49 | 43.72684 | 64.93990 | 36893 ft | 511 kts | 94° |
| 2026-04-25 18:50 | 43.72574 | 65.03736 | 36901 ft | 510 kts | 94° |
| 2026-04-25 18:50 | 43.72455 | 65.13509 | 36903 ft | 511 kts | 94° |
| 2026-04-25 18:51 | 43.72349 | 65.21703 | 36914 ft | 510 kts | 94° |
| 2026-04-25 18:51 | 43.72190 | 65.33058 | 36918 ft | 512 kts | 94° |
| 2026-04-25 18:52 | 43.72046 | 65.42872 | 36916 ft | 510 kts | 94° |
| 2026-04-25 18:52 | 43.71894 | 65.52608 | 36919 ft | 510 kts | 93° |
| 2026-04-25 18:53 | 43.71733 | 65.62352 | 36919 ft | 510 kts | 93° |
| 2026-04-25 18:53 | 43.71564 | 65.72141 | 36910 ft | 509 kts | 94° |
| 2026-04-25 18:54 | 43.71295 | 65.86794 | 36912 ft | 510 kts | 94° |
| 2026-04-25 18:55 | 43.71106 | 65.96491 | 36913 ft | 509 kts | 94° |
| 2026-04-25 18:55 | 43.70906 | 66.06289 | 36914 ft | 511 kts | 94° |
| 2026-04-25 18:56 | 43.70701 | 66.16004 | 36923 ft | 509 kts | 93° |
| 2026-04-25 18:56 | 43.70487 | 66.25735 | 36935 ft | 510 kts | 94° |
| 2026-04-25 18:57 | 43.70263 | 66.35516 | 36937 ft | 509 kts | 93° |
| 2026-04-25 18:57 | 43.70034 | 66.45193 | 36936 ft | 507 kts | 93° |
| 2026-04-25 18:58 | 43.69795 | 66.54935 | 36933 ft | 507 kts | 94° |
| 2026-04-25 18:58 | 43.69423 | 66.69447 | 36928 ft | 507 kts | 94° |
| 2026-04-25 18:59 | 43.68897 | 66.88821 | 36929 ft | 507 kts | 94° |
| 2026-04-25 19:00 | 43.68480 | 67.03428 | 36934 ft | 512 kts | 93° |
| 2026-04-25 19:01 | 43.68039 | 67.18193 | 36948 ft | 516 kts | 93° |
| 2026-04-25 19:01 | 43.67733 | 67.28062 | 36951 ft | 519 kts | 93° |
| 2026-04-25 19:02 | 43.67255 | 67.42999 | 36969 ft | 523 kts | 93° |
| 2026-04-25 19:03 | 43.66808 | 67.56383 | 36985 ft | 526 kts | 93° |
| 2026-04-25 19:03 | 43.66403 | 67.68175 | 36990 ft | 529 kts | 93° |
| 2026-04-25 19:04 | 43.65865 | 67.83304 | 37010 ft | 529 kts | 93° |
| 2026-04-25 19:05 | 43.65115 | 68.03533 | 37044 ft | 528 kts | 93° |
| 2026-04-25 19:06 | 43.64727 | 68.13627 | 37037 ft | 528 kts | 93° |
| 2026-04-25 19:06 | 43.64131 | 68.28687 | 37048 ft | 526 kts | 93° |
| 2026-04-25 19:07 | 43.63516 | 68.43738 | 37082 ft | 526 kts | 93° |
| 2026-04-25 19:08 | 43.62881 | 68.58786 | 37087 ft | 524 kts | 93° |
| 2026-04-25 19:09 | 43.62082 | 68.77110 | 37097 ft | 523 kts | 94° |
| 2026-04-25 19:10 | 43.61331 | 68.93712 | 37074 ft | 521 kts | 94° |
| 2026-04-25 19:10 | 43.60870 | 69.03639 | 37075 ft | 519 kts | 93° |
| 2026-04-25 19:11 | 43.60403 | 69.13529 | 37070 ft | 519 kts | 93° |
| 2026-04-25 19:11 | 43.59930 | 69.23375 | 37066 ft | 520 kts | 93° |
| 2026-04-25 19:12 | 43.59445 | 69.33272 | 37069 ft | 518 kts | 93° |
| 2026-04-25 19:12 | 43.58950 | 69.43202 | 37073 ft | 519 kts | 93° |
| 2026-04-25 19:13 | 43.58452 | 69.53037 | 37072 ft | 518 kts | 93° |
| 2026-04-25 19:13 | 43.57941 | 69.62941 | 37083 ft | 518 kts | 94° |
| 2026-04-25 19:14 | 43.57426 | 69.72749 | 37088 ft | 516 kts | 94° |
| 2026-04-25 19:14 | 43.56901 | 69.82599 | 37104 ft | 516 kts | 94° |
| 2026-04-25 19:15 | 43.56368 | 69.92425 | 37101 ft | 517 kts | 94° |
| 2026-04-25 19:15 | 43.55824 | 70.02311 | 37098 ft | 515 kts | 94° |
| 2026-04-25 19:16 | 43.55277 | 70.12105 | 37092 ft | 515 kts | 94° |
| 2026-04-25 19:16 | 43.54721 | 70.21881 | 37094 ft | 515 kts | 94° |
| 2026-04-25 19:17 | 43.54154 | 70.31719 | 37085 ft | 515 kts | 94° |
| 2026-04-25 19:17 | 43.53582 | 70.41498 | 37088 ft | 514 kts | 94° |
| 2026-04-25 19:18 | 43.53002 | 70.51252 | 37086 ft | 512 kts | 94° |
| 2026-04-25 19:18 | 43.52416 | 70.60973 | 37086 ft | 512 kts | 94° |
| 2026-04-25 19:19 | 43.51823 | 70.70690 | 37076 ft | 513 kts | 94° |
| 2026-04-25 19:19 | 43.51231 | 70.80240 | 37081 ft | 513 kts | 94° |
| 2026-04-25 19:20 | 43.50857 | 70.89950 | 37080 ft | 511 kts | 85° |
| 2026-04-25 19:20 | 43.51732 | 70.99594 | 37075 ft | 510 kts | 81° |
| 2026-04-25 19:21 | 43.52549 | 71.09255 | 37079 ft | 509 kts | 82° |
| 2026-04-25 19:21 | 43.53649 | 71.23737 | 37074 ft | 509 kts | 82° |
| 2026-04-25 19:22 | 43.54348 | 71.33385 | 37083 ft | 508 kts | 82° |
| 2026-04-25 19:23 | 43.55374 | 71.47894 | 37079 ft | 508 kts | 82° |
| 2026-04-25 19:23 | 43.56373 | 71.62344 | 37083 ft | 508 kts | 82° |
| 2026-04-25 19:24 | 43.57029 | 71.71983 | 37074 ft | 506 kts | 83° |
| 2026-04-25 19:25 | 43.58315 | 71.91234 | 37084 ft | 506 kts | 83° |
| 2026-04-25 19:25 | 43.58947 | 72.00893 | 37086 ft | 505 kts | 83° |
| 2026-04-25 19:26 | 43.59569 | 72.10512 | 37088 ft | 505 kts | 83° |
| 2026-04-25 19:26 | 43.60183 | 72.20135 | 37082 ft | 505 kts | 83° |
| 2026-04-25 19:27 | 43.60687 | 72.28139 | 37089 ft | 504 kts | 83° |
| 2026-04-25 19:27 | 43.61382 | 72.39311 | 37090 ft | 504 kts | 83° |
| 2026-04-25 19:28 | 43.61969 | 72.48896 | 37090 ft | 503 kts | 83° |
| 2026-04-25 19:28 | 43.62549 | 72.58513 | 37094 ft | 503 kts | 83° |
| 2026-04-25 19:29 | 43.63120 | 72.68092 | 37088 ft | 503 kts | 84° |
| 2026-04-25 19:29 | 43.63680 | 72.77640 | 37090 ft | 503 kts | 84° |
| 2026-04-25 19:30 | 43.64236 | 72.87254 | 37092 ft | 502 kts | 84° |
| 2026-04-25 19:30 | 43.64780 | 72.96801 | 37094 ft | 501 kts | 84° |
| 2026-04-25 19:31 | 43.65315 | 73.06332 | 37096 ft | 501 kts | 84° |
| 2026-04-25 19:31 | 43.65847 | 73.15945 | 37096 ft | 501 kts | 84° |
| 2026-04-25 19:32 | 43.66367 | 73.25481 | 37097 ft | 501 kts | 84° |
| 2026-04-25 19:32 | 43.66796 | 73.33472 | 37096 ft | 501 kts | 84° |
| 2026-04-25 19:33 | 43.67382 | 73.44583 | 37091 ft | 501 kts | 84° |
| 2026-04-25 19:33 | 43.67880 | 73.54170 | 37092 ft | 501 kts | 84° |
| 2026-04-25 19:34 | 43.68370 | 73.63756 | 37097 ft | 501 kts | 84° |
| 2026-04-25 19:34 | 43.68600 | 73.73295 | 37101 ft | 502 kts | 94° |
| 2026-04-25 19:35 | 43.67347 | 73.82822 | 37090 ft | 505 kts | 101° |
| 2026-04-25 19:35 | 43.65814 | 73.92230 | 37096 ft | 505 kts | 102° |
| 2026-04-25 19:36 | 43.64223 | 74.01598 | 37107 ft | 505 kts | 102° |
| 2026-04-25 19:36 | 43.62594 | 74.11018 | 37128 ft | 504 kts | 102° |
| 2026-04-25 19:37 | 43.60966 | 74.20338 | 37143 ft | 504 kts | 102° |
| 2026-04-25 19:37 | 43.59367 | 74.29758 | 37162 ft | 503 kts | 98° |
| 2026-04-25 19:38 | 43.59150 | 74.39297 | 36914 ft | 497 kts | 83° |
| 2026-04-25 19:38 | 43.59332 | 74.43964 | 37322 ft | 492 kts | 85° |
| 2026-04-25 19:38 | 43.59505 | 74.48697 | 37169 ft | 495 kts | 84° |
| 2026-04-25 19:39 | 43.59679 | 74.53306 | 36953 ft | 476 kts | 84° |
| 2026-04-25 19:39 | 43.59841 | 74.57761 | 36677 ft | 458 kts | 84° |
| 2026-04-25 19:39 | 43.59997 | 74.62090 | 36581 ft | 447 kts | 84° |
| 2026-04-25 19:39 | 43.60121 | 74.66318 | 36034 ft | 447 kts | 88° |
| 2026-04-25 19:40 | 43.60106 | 74.70616 | 35442 ft | 449 kts | 88° |
| 2026-04-25 19:40 | 43.60097 | 74.74908 | 34926 ft | 448 kts | 88° |
| 2026-04-25 19:40 | 43.60095 | 74.79159 | 34360 ft | 449 kts | 88° |
| 2026-04-25 19:40 | 43.60094 | 74.83468 | 33732 ft | 449 kts | 88° |
| 2026-04-25 19:41 | 43.60095 | 74.87719 | 33114 ft | 448 kts | 88° |
| 2026-04-25 19:41 | 43.60095 | 74.92045 | 32417 ft | 450 kts | 89° |
| 2026-04-25 19:41 | 43.60094 | 74.96313 | 31757 ft | 450 kts | 89° |
| 2026-04-25 19:41 | 43.60092 | 74.99200 | 31279 ft | 451 kts | 89° |
| 2026-04-25 19:42 | 43.60088 | 75.04920 | 30357 ft | 451 kts | 89° |
| 2026-04-25 19:42 | 43.60082 | 75.09207 | 29830 ft | 447 kts | 89° |
| 2026-04-25 19:42 | 43.60074 | 75.13491 | 29228 ft | 444 kts | 89° |
| 2026-04-25 19:42 | 43.60066 | 75.17685 | 28712 ft | 440 kts | 89° |
| 2026-04-25 19:43 | 43.60057 | 75.21906 | 28100 ft | 438 kts | 89° |
| 2026-04-25 19:43 | 43.60045 | 75.26045 | 27593 ft | 435 kts | 89° |
| 2026-04-25 19:43 | 43.60033 | 75.30206 | 27018 ft | 432 kts | 89° |
| 2026-04-25 19:43 | 43.60018 | 75.34309 | 26519 ft | 428 kts | 89° |
| 2026-04-25 19:44 | 43.60003 | 75.38390 | 25981 ft | 425 kts | 89° |
| 2026-04-25 19:44 | 43.59987 | 75.42387 | 25476 ft | 421 kts | 89° |
| 2026-04-25 19:44 | 43.59969 | 75.46410 | 24936 ft | 419 kts | 89° |
| 2026-04-25 19:44 | 43.59949 | 75.50411 | 24357 ft | 417 kts | 89° |
| 2026-04-25 19:45 | 43.59929 | 75.54350 | 23808 ft | 414 kts | 89° |
| 2026-04-25 19:45 | 43.59907 | 75.58294 | 23267 ft | 411 kts | 89° |
| 2026-04-25 19:45 | 43.59884 | 75.62220 | 22745 ft | 407 kts | 89° |
| 2026-04-25 19:45 | 43.59860 | 75.66106 | 22240 ft | 404 kts | 90° |
| 2026-04-25 19:46 | 43.59835 | 75.69917 | 21751 ft | 400 kts | 90° |
| 2026-04-25 19:46 | 43.59809 | 75.73727 | 21264 ft | 396 kts | 90° |
| 2026-04-25 19:46 | 43.59782 | 75.77496 | 20791 ft | 391 kts | 90° |
| 2026-04-25 19:46 | 43.59754 | 75.81222 | 20336 ft | 387 kts | 90° |
| 2026-04-25 19:47 | 43.59725 | 75.84902 | 19890 ft | 382 kts | 90° |
| 2026-04-25 19:47 | 43.59695 | 75.88496 | 19453 ft | 377 kts | 90° |
| 2026-04-25 19:47 | 43.59665 | 75.92098 | 19029 ft | 375 kts | 90° |
| 2026-04-25 19:47 | 43.59633 | 75.95695 | 18599 ft | 374 kts | 90° |
| 2026-04-25 19:48 | 43.59601 | 75.99254 | 18176 ft | 373 kts | 90° |
| 2026-04-25 19:48 | 43.59567 | 76.02779 | 17761 ft | 370 kts | 90° |
| 2026-04-25 19:48 | 43.59533 | 76.06317 | 17354 ft | 366 kts | 90° |
| 2026-04-25 19:48 | 43.59498 | 76.09821 | 16947 ft | 364 kts | 90° |
| 2026-04-25 19:49 | 43.59463 | 76.13284 | 16526 ft | 362 kts | 90° |
| 2026-04-25 19:49 | 43.59439 | 76.15556 | 16254 ft | 361 kts | 90° |
| 2026-04-25 19:49 | 43.59389 | 76.20131 | 15720 ft | 359 kts | 90° |
| 2026-04-25 19:49 | 43.59304 | 76.23562 | 15308 ft | 356 kts | 97° |
| 2026-04-25 19:50 | 43.57432 | 76.29723 | 14503 ft | 353 kts | 130° |
| 2026-04-25 19:50 | 43.55624 | 76.32017 | 13907 ft | 354 kts | 147° |
| 2026-04-25 19:50 | 43.53465 | 76.33475 | 13390 ft | 349 kts | 162° |
| 2026-04-25 19:51 | 43.51155 | 76.34428 | 12982 ft | 343 kts | 165° |
| 2026-04-25 19:51 | 43.48892 | 76.35304 | 12678 ft | 335 kts | 162° |
| 2026-04-25 19:51 | 43.46816 | 76.36719 | 12412 ft | 332 kts | 145° |
| 2026-04-25 19:51 | 43.45079 | 76.38787 | 12189 ft | 324 kts | 137° |
| 2026-04-25 19:52 | 43.43493 | 76.40808 | 12149 ft | 305 kts | 138° |
| 2026-04-25 19:52 | 43.41977 | 76.42754 | 12127 ft | 290 kts | 137° |
| 2026-04-25 19:52 | 43.40511 | 76.44653 | 11857 ft | 286 kts | 137° |
| 2026-04-25 19:52 | 43.39083 | 76.46510 | 11528 ft | 285 kts | 137° |
| 2026-04-25 19:53 | 43.37693 | 76.48441 | 11202 ft | 282 kts | 128° |
| 2026-04-25 19:53 | 43.36503 | 76.50573 | 10876 ft | 280 kts | 129° |
| 2026-04-25 19:53 | 43.35244 | 76.52558 | 10570 ft | 277 kts | 132° |
| 2026-04-25 19:53 | 43.33926 | 76.54482 | 10252 ft | 275 kts | 134° |
| 2026-04-25 19:54 | 43.32585 | 76.56351 | 9919 ft | 274 kts | 135° |
| 2026-04-25 19:54 | 43.31231 | 76.58187 | 9573 ft | 274 kts | 136° |
| 2026-04-25 19:54 | 43.29885 | 76.59981 | 9292 ft | 270 kts | 136° |
| 2026-04-25 19:54 | 43.28990 | 76.61163 | 9054 ft | 270 kts | 136° |
| 2026-04-25 19:55 | 43.27188 | 76.63557 | 8743 ft | 262 kts | 131° |
| 2026-04-25 19:55 | 43.26298 | 76.65665 | 8516 ft | 258 kts | 107° |
| 2026-04-25 19:55 | 43.25864 | 76.68030 | 8240 ft | 257 kts | 105° |
| 2026-04-25 19:55 | 43.25435 | 76.70416 | 7929 ft | 256 kts | 104° |
| 2026-04-25 19:56 | 43.25026 | 76.72764 | 7647 ft | 254 kts | 104° |
| 2026-04-25 19:56 | 43.24620 | 76.75138 | 7370 ft | 252 kts | 104° |
| 2026-04-25 19:56 | 43.24236 | 76.77414 | 7354 ft | 240 kts | 104° |
| 2026-04-25 19:56 | 43.23896 | 76.79596 | 7119 ft | 232 kts | 98° |
| 2026-04-25 19:57 | 43.23987 | 76.81729 | 6862 ft | 222 kts | 65° |
| 2026-04-25 19:57 | 43.24824 | 76.83404 | 6727 ft | 207 kts | 53° |
| 2026-04-25 19:57 | 43.25682 | 76.84975 | 6188 ft | 211 kts | 57° |
| 2026-04-25 19:57 | 43.26516 | 76.86591 | 5503 ft | 210 kts | 57° |
| 2026-04-25 19:58 | 43.27346 | 76.88214 | 4861 ft | 205 kts | 57° |
| 2026-04-25 19:58 | 43.28133 | 76.89771 | 4319 ft | 193 kts | 57° |
| 2026-04-25 19:58 | 43.28854 | 76.91199 | 4053 ft | 173 kts | 58° |
| 2026-04-25 19:58 | 43.29498 | 76.92481 | 3869 ft | 155 kts | 58° |
| 2026-04-25 19:59 | 43.30078 | 76.93642 | 3631 ft | 142 kts | 58° |
| 2026-04-25 19:59 | 43.30620 | 76.94727 | 3437 ft | 137 kts | 58° |
| 2026-04-25 19:59 | 43.31172 | 76.95837 | 3279 ft | 143 kts | 58° |
| 2026-04-25 19:59 | 43.31741 | 76.96964 | 3089 ft | 144 kts | 57° |
| 2026-04-25 20:00 | 43.32304 | 76.98083 | 2881 ft | 142 kts | 57° |
| 2026-04-25 20:00 | 43.32682 | 76.98834 | 2750 ft | 141 kts | 57° |
| 2026-04-25 20:00 | 43.33414 | 77.00317 | 2500 ft | 141 kts | 57° |
| 2026-04-25 20:00 | 43.33965 | 77.01424 | 2326 ft | 142 kts | 58° |
| 2026-04-25 20:01 | 43.34952 | 77.03423 | 2228 ft | 80 kts | 56° |
| 2026-04-25 20:01 | 43.35141 | 77.03792 | 2232 ft | 25 kts | 47° |
| 2026-04-25 20:01 | 43.35260 | 77.03922 | 2233 ft | 20 kts | 30° |
| 2026-04-25 20:02 | 43.35360 | 77.03991 | 2231 ft | 14 kts | 26° |
| 2026-04-25 20:02 | 43.35432 | 77.03986 | 2231 ft | 10 kts | 299° |
| 2026-04-25 20:02 | 43.35414 | 77.03893 | 2230 ft | 11 kts | 236° |
| 2026-04-25 20:02 | 43.35370 | 77.03803 | 2230 ft | 12 kts | 236° |
| 2026-04-25 20:03 | 43.35310 | 77.03683 | 2228 ft | 17 kts | 235° |
| 2026-04-25 20:03 | 43.35228 | 77.03526 | 2227 ft | 22 kts | 235° |
| 2026-04-25 20:03 | 43.35135 | 77.03332 | 2225 ft | 27 kts | 235° |
| 2026-04-25 20:03 | 43.35020 | 77.03104 | 2223 ft | 30 kts | 236° |
| 2026-04-25 20:04 | 43.34904 | 77.02867 | 2224 ft | 28 kts | 235° |
| 2026-04-25 20:04 | 43.34813 | 77.02683 | 2225 ft | 15 kts | 236° |
| 2026-04-25 20:04 | 43.34773 | 77.02555 | 2226 ft | 14 kts | 262° |
| 2026-04-25 20:04 | 43.34775 | 77.02422 | 2225 ft | 13 kts | 274° |
| 2026-04-25 20:05 | 43.34782 | 77.02292 | 2224 ft | 10 kts | 274° |
| 2026-04-25 20:05 | 43.34787 | 77.02183 | 2222 ft | 12 kts | 272° |
| 2026-04-25 20:05 | 43.34792 | 77.02065 | 2222 ft | 12 kts | 274° |
| 2026-04-25 20:05 | 43.34798 | 77.01950 | 2222 ft | 11 kts | 274° |
| 2026-04-25 20:06 | 43.34803 | 77.01837 | 2221 ft | 11 kts | 274° |
| 2026-04-25 20:06 | 43.34808 | 77.01728 | 2221 ft | 11 kts | 274° |
| 2026-04-25 20:06 | 43.34813 | 77.01636 | 2221 ft | 6 kts | 274° |
| 2026-04-25 20:06 | 43.34815 | 77.01595 | 2221 ft | 1 kts | 274° |
| 2026-04-25 20:07 | 43.34817 | 77.01560 | 2221 ft | 4 kts | 280° |
| 2026-04-25 20:07 | 43.34832 | 77.01531 | 2221 ft | 3 kts | 328° |
| 2026-04-25 20:07 | 43.34835 | 77.01530 | 2221 ft | 0 kts | 333° |
| 2026-04-25 20:08 | 43.34835 | 77.01529 | 2221 ft | 0 kts | 333° |
| 2026-04-25 20:08 | 43.34855 | 77.01515 | 2220 ft | 4 kts | 331° |
| 2026-04-25 20:08 | 43.34868 | 77.01475 | 2220 ft | 5 kts | 263° |
| 2026-04-25 20:08 | 43.34854 | 77.01427 | 2220 ft | 4 kts | 245° |
| 2026-04-25 20:09 | 43.34844 | 77.01397 | 2220 ft | 2 kts | 245° |
| 2026-04-25 20:09 | 43.34843 | 77.01395 | 2220 ft | 0 kts | 245° |